Time;durP1;ratioP1;P1;durP2;ratioP2;P2;SDS_P1;SDS_P2;PMS_P1;PMS_P2;Temp;Humidity;BMP_temperature;BMP_pressure;BME280_temperature;BME280_humidity;BME280_pressure;Samples;Min_cycle;Max_cycle;Signal;HPM_P1;HPM_P2
2023/03/02 00:01:00;;;;;;;6.38;3.05;;;;;;;-0.73;90.66;102027.16;6080159;23;20073;-72
2023/03/02 00:03:27;;;;;;;3.28;3.10;;;;;;;-0.78;90.81;102024.50;6051029;23;20105;-72
2023/03/02 00:05:57;;;;;;;2.83;2.72;;;;;;;-0.73;90.62;102033.16;6102291;23;20479;-73
2023/03/02 00:08:24;;;;;;;3.85;3.65;;;;;;;-0.54;89.98;102041.19;6055909;23;20022;-73
2023/03/02 00:10:50;;;;;;;3.08;2.97;;;;;;;-0.48;89.56;102031.84;6080008;23;20030;-72
2023/03/02 00:13:17;;;;;;;2.90;2.80;;;;;;;-0.89;88.12;101953.88;6110956;23;20092;-71
2023/03/02 00:15:45;;;;;;;4.50;4.10;;;;;;;-0.36;88.43;102028.59;6082459;23;20288;-74
2023/03/02 00:18:12;;;;;;;2.60;2.42;;;;;;;-0.48;87.19;102000.91;6106776;23;20591;-73
2023/03/02 00:20:40;;;;;;;3.42;3.22;;;;;;;-0.46;86.96;102012.09;6079924;23;20100;-73
2023/03/02 00:23:07;;;;;;;3.20;3.00;;;;;;;-0.66;87.33;101991.19;6108160;23;20025;-72
2023/03/02 00:25:35;;;;;;;3.88;3.58;;;;;;;-0.51;87.32;102015.47;6082876;23;20647;-75
2023/03/02 00:28:01;;;;;;;3.92;3.67;;;;;;;-0.64;87.79;101986.91;6050915;23;20026;-73
2023/03/02 00:30:28;;;;;;;2.90;2.70;;;;;;;-0.43;87.37;102012.13;6054534;23;20134;-73
2023/03/02 00:32:55;;;;;;;4.00;3.75;;;;;;;-0.48;87.92;102012.91;6050763;23;20072;-73
2023/03/02 00:35:21;;;;;;;3.28;3.05;;;;;;;-0.91;88.66;101945.25;6080553;23;20088;-72
2023/03/02 00:37:48;;;;;;;2.55;2.45;;;;;;;-0.65;89.01;101994.63;6106052;23;20592;-70
2023/03/02 00:40:14;;;;;;;3.70;3.50;;;;;;;-0.63;90.15;102018.72;6052412;23;20087;-75
2023/03/02 00:42:41;;;;;;;2.88;2.78;;;;;;;-0.74;91.27;102027.97;6078981;23;20136;-72
2023/03/02 00:45:08;;;;;;;3.30;3.10;;;;;;;-0.98;92.50;101989.81;6109079;23;20236;-76
2023/03/02 00:47:36;;;;;;;3.05;2.85;;;;;;;-1.87;93.82;101843.28;6030758;23;20456;-74
2023/03/02 00:50:04;;;;;;;2.70;2.60;;;;;;;-0.91;93.86;102020.84;6083431;23;20028;-74
2023/03/02 00:52:31;;;;;;;3.17;3.08;;;;;;;-1.15;94.92;102005.00;6060408;23;20140;-73
2023/03/02 00:54:58;;;;;;;5.45;3.55;;;;;;;-1.43;95.76;101960.72;6108523;23;20037;-72
2023/03/02 00:57:24;;;;;;;2.58;2.47;;;;;;;-1.62;96.11;101957.81;6062465;23;20072;-75
2023/03/02 00:59:51;;;;;;;3.50;3.17;;;;;;;-1.25;96.02;102020.28;6104864;23;20056;-74
2023/03/02 01:02:20;;;;;;;3.45;2.60;;;;;;;-1.42;97.11;101996.81;6029772;23;20144;-73
2023/03/02 01:04:47;;;;;;;3.42;3.22;;;;;;;-1.99;96.83;101924.53;6079626;23;20038;-72
2023/03/02 01:07:17;;;;;;;5.68;2.85;;;;;;;-2.02;96.99;101928.78;6105774;23;20448;-74
2023/03/02 01:09:44;;;;;;;2.85;2.75;;;;;;;-1.51;98.54;102013.78;6077730;23;20196;-74
2023/03/02 01:12:11;;;;;;;2.60;2.50;;;;;;;-1.51;98.93;102011.22;6105535;23;20104;-74
2023/03/02 01:14:40;;;;;;;3.88;2.88;;;;;;;-1.53;98.78;102006.03;6055511;23;20484;-72
2023/03/02 01:17:08;;;;;;;2.63;2.53;;;;;;;-1.59;98.07;101999.91;6024859;23;20010;-71
2023/03/02 01:19:35;;;;;;;4.50;2.70;;;;;;;-2.01;97.66;101951.06;6103009;23;20029;-73
2023/03/02 01:22:02;;;;;;;6.50;4.43;;;;;;;-1.80;98.17;101980.66;6078820;23;20417;-74
2023/03/02 01:24:29;;;;;;;3.35;3.15;;;;;;;-1.90;98.21;101977.03;6054547;23;20014;-73
2023/03/02 01:26:55;;;;;;;2.40;2.30;;;;;;;-2.09;98.27;101952.63;6103028;23;20143;-73
2023/03/02 01:29:21;;;;;;;3.55;3.35;;;;;;;-2.01;98.15;101971.66;6079857;23;20082;-71
2023/03/02 01:31:48;;;;;;;2.92;2.75;;;;;;;-2.09;98.30;101968.06;6048735;23;20195;-72
2023/03/02 01:34:15;;;;;;;3.60;3.40;;;;;;;-2.62;99.07;101894.13;6081097;23;20026;-72
2023/03/02 01:36:44;;;;;;;3.33;3.13;;;;;;;-2.24;99.99;101960.91;6051509;23;20030;-73
2023/03/02 01:39:15;;;;;;;3.05;2.95;;;;;;;-2.27;100.00;101960.81;6079379;23;20089;-73
2023/03/02 01:41:45;;;;;;;3.10;3.00;;;;;;;-2.39;100.00;101936.56;6050497;23;20038;-72
2023/03/02 01:44:40;;;;;;;4.07;3.67;;;;;;;-2.05;100.00;101956.13;6079071;23;20113;-72
2023/03/02 01:47:25;;;;;;;3.38;3.17;;;;;;;-1.89;100.00;101965.03;6050416;23;20084;-73
2023/03/02 01:49:57;;;;;;;4.80;3.15;;;;;;;-1.79;100.00;101964.34;6104672;23;20017;-73
2023/03/02 01:52:25;;;;;;;2.47;2.35;;;;;;;-1.73;100.00;101953.31;6048281;23;20022;-74
2023/03/02 01:54:56;;;;;;;12.43;4.65;;;;;;;-1.71;100.00;101956.78;6079135;23;20028;-70
2023/03/02 01:57:28;;;;;;;3.75;3.42;;;;;;;-1.80;100.00;101942.06;6105350;23;20315;-71
2023/03/02 02:00:07;;;;;;;2.85;2.63;;;;;;;-1.74;100.00;101946.44;6055874;23;20037;-73
2023/03/02 02:02:35;;;;;;;3.58;3.33;;;;;;;-2.35;99.83;101850.97;6050154;23;20007;-73
2023/03/02 02:05:02;;;;;;;3.15;3.05;;;;;;;-1.72;99.10;101944.78;6070052;23;20022;-74
2023/03/02 02:07:29;;;;;;;2.38;2.28;;;;;;;-2.05;98.82;101879.81;6051924;23;20035;-73
2023/03/02 02:09:56;;;;;;;2.40;2.30;;;;;;;-1.78;99.13;101935.22;6080343;23;20085;-74
2023/03/02 02:12:23;;;;;;;3.22;2.90;;;;;;;-1.83;97.88;101935.13;6051791;23;20301;-73
2023/03/02 02:14:49;;;;;;;3.88;3.58;;;;;;;-1.85;97.55;101929.06;6079608;23;20182;-71
2023/03/02 02:17:18;;;;;;;2.80;2.70;;;;;;;-2.08;98.05;101894.34;6050610;23;20026;-70
2023/03/02 02:20:19;;;;;;;3.33;3.13;;;;;;;-1.89;97.54;101923.84;6079274;23;20136;-73
2023/03/02 02:22:52;;;;;;;2.55;2.45;;;;;;;-1.96;98.27;101925.44;6104946;23;20107;-73
2023/03/02 02:25:44;;;;;;;5.20;3.10;;;;;;;-2.03;98.49;101921.00;6028037;23;20030;-73
2023/03/02 02:28:18;;;;;;;2.60;2.40;;;;;;;-2.11;97.96;101926.00;6103840;23;20021;-73
2023/03/02 02:30:46;;;;;;;2.95;2.83;;;;;;;-3.47;97.60;101704.00;6051252;23;20091;-72
2023/03/02 02:33:18;;;;;;;4.82;4.38;;;;;;;-2.34;99.09;101910.13;6049160;23;20305;-73
2023/03/02 02:35:46;;;;;;;3.55;3.33;;;;;;;-2.29;99.58;101912.78;6105992;23;20026;-73
2023/03/02 02:38:17;;;;;;;3.38;3.20;;;;;;;-2.21;100.00;101929.22;6060955;23;20043;-74
2023/03/02 02:40:50;;;;;;;2.65;2.55;;;;;;;-2.24;100.00;101924.03;6102422;23;20325;-73
2023/03/02 02:43:19;;;;;;;2.67;2.58;;;;;;;-2.29;100.00;101920.50;6058527;23;20030;-74
2023/03/02 02:45:50;;;;;;;2.70;2.60;;;;;;;-2.42;100.00;101904.81;6082502;23;21652;-73
2023/03/02 02:48:21;;;;;;;2.80;2.70;;;;;;;-2.36;100.00;101924.66;6056459;23;20563;-71
2023/03/02 02:50:48;;;;;;;3.00;2.80;;;;;;;-2.39;100.00;101926.28;6107348;23;20225;-73
2023/03/02 02:53:20;;;;;;;3.15;2.95;;;;;;;-2.44;100.00;101921.06;6057988;23;20033;-72
2023/03/02 02:55:50;;;;;;;4.97;3.20;;;;;;;-2.78;100.00;101883.50;6105155;23;20033;-72
2023/03/02 02:58:30;;;;;;;3.85;3.65;;;;;;;-2.73;100.00;101895.59;6068336;23;20029;-73
2023/03/02 03:00:58;;;;;;;3.67;3.30;;;;;;;-2.53;100.00;101929.44;6078102;23;20102;-70
2023/03/02 03:03:36;;;;;;;2.55;2.45;;;;;;;-2.50;100.00;101915.78;6020820;23;20035;-74
2023/03/02 03:06:06;;;;;;;4.30;2.88;;;;;;;-3.84;100.00;101707.44;6050486;23;20402;-73
2023/03/02 03:08:44;;;;;;;2.78;2.67;;;;;;;-2.47;100.00;101931.28;6054869;23;20080;-74
2023/03/02 03:11:23;;;;;;;2.20;2.10;;;;;;;-2.43;100.00;101921.06;6021114;23;20002;-72
2023/03/02 03:14:15;;;;;;;3.00;2.90;;;;;;;-2.45;100.00;101915.03;6023076;23;20031;-72
2023/03/02 03:16:43;;;;;;;3.03;2.70;;;;;;;-2.45;100.00;101922.75;6052833;23;20026;-71
2023/03/02 03:19:21;;;;;;;3.00;2.90;;;;;;;-2.79;100.00;101872.34;6057016;23;21324;-72
2023/03/02 03:21:50;;;;;;;3.25;3.05;;;;;;;-2.95;100.00;101866.00;6035202;23;20573;-73
2023/03/02 03:24:17;;;;;;;3.00;2.80;;;;;;;-2.63;100.00;101907.81;6074604;23;20036;-72
2023/03/02 03:26:43;;;;;;;2.75;2.65;;;;;;;-2.66;100.00;101915.47;6021994;23;20248;-73
2023/03/02 03:29:11;;;;;;;3.67;3.47;;;;;;;-2.69;100.00;101909.38;6019193;23;20108;-73
2023/03/02 03:31:38;;;;;;;2.60;2.50;;;;;;;-3.15;100.00;101839.88;6045295;23;20410;-72
2023/03/02 03:34:05;;;;;;;2.67;2.55;;;;;;;-2.77;100.00;101908.34;6075499;23;20022;-74
2023/03/02 03:36:32;;;;;;;3.17;2.97;;;;;;;-2.76;100.00;101907.53;6048906;23;20017;-72
2023/03/02 03:39:00;;;;;;;3.00;2.90;;;;;;;-2.81;100.00;101898.00;6072899;23;20095;-74
2023/03/02 03:41:26;;;;;;;2.45;2.35;;;;;;;-2.70;100.00;101911.09;6022241;23;20080;-73
2023/03/02 03:43:53;;;;;;;3.08;2.88;;;;;;;-2.67;100.00;101912.84;6049909;23;20512;-69
2023/03/02 03:46:19;;;;;;;3.42;3.22;;;;;;;-3.10;100.00;101843.41;6001612;23;20007;-73
2023/03/02 03:48:46;;;;;;;2.97;2.88;;;;;;;-2.70;100.00;101912.78;6054277;23;20516;-70
2023/03/02 03:51:12;;;;;;;2.90;2.70;;;;;;;-2.71;100.00;101909.34;6049464;23;20007;-72
2023/03/02 03:53:39;;;;;;;3.58;3.28;;;;;;;-2.95;100.00;101878.84;6022863;23;20219;-72
2023/03/02 03:56:06;;;;;;;2.92;2.55;;;;;;;-3.11;100.00;101856.22;6076193;23;20030;-74
2023/03/02 03:58:32;;;;;;;5.70;3.22;;;;;;;-3.37;100.00;101817.13;6061461;23;20034;-74
2023/03/02 04:00:59;;;;;;;2.95;2.85;;;;;;;-2.88;100.00;101905.53;6023259;23;20093;-71
2023/03/02 04:03:26;;;;;;;3.30;3.10;;;;;;;-2.93;100.00;101900.28;6080629;23;20045;-72
2023/03/02 04:05:52;;;;;;;2.30;2.20;;;;;;;-2.87;100.00;101904.69;6061652;23;20038;-74
2023/03/02 04:08:19;;;;;;;3.03;2.88;;;;;;;-3.27;100.00;101827.66;6081374;23;20052;-72
2023/03/02 04:10:45;;;;;;;2.50;2.40;;;;;;;-4.28;100.00;101653.44;6077532;23;20437;-73
2023/03/02 04:13:12;;;;;;;3.05;2.90;;;;;;;-2.91;100.00;101878.06;6103085;23;20061;-71
2023/03/02 04:15:40;;;;;;;3.13;3.03;;;;;;;-2.74;100.00;101900.72;6053229;23;20037;-72
2023/03/02 04:18:07;;;;;;;2.50;2.40;;;;;;;-2.92;100.00;101870.34;6102364;23;20075;-73
2023/03/02 04:20:33;;;;;;;4.05;3.70;;;;;;;-3.06;100.00;101855.50;6080010;23;20382;-70
2023/03/02 04:23:00;;;;;;;2.38;2.28;;;;;;;-3.07;100.00;101858.03;6026589;23;20026;-71
2023/03/02 04:25:28;;;;;;;3.05;2.85;;;;;;;-2.92;100.00;101871.22;6106678;23;20036;-73
2023/03/02 04:27:55;;;;;;;2.97;2.88;;;;;;;-3.36;100.00;101814.59;6058812;23;20444;-73
2023/03/02 04:30:24;;;;;;;3.35;3.05;;;;;;;-3.31;100.00;101812.13;6106732;23;20037;-73
2023/03/02 04:32:51;;;;;;;2.28;2.17;;;;;;;-2.89;100.00;101888.38;6055049;23;20099;-69
2023/03/02 04:35:18;;;;;;;2.85;2.75;;;;;;;-3.08;100.00;101866.56;6105986;23;20279;-74
2023/03/02 04:37:45;;;;;;;2.92;2.70;;;;;;;-3.54;100.00;101789.38;6059744;23;20014;-71
2023/03/02 04:40:13;;;;;;;4.38;2.83;;;;;;;-3.24;100.00;101844.81;6083233;23;20033;-74
2023/03/02 04:42:40;;;;;;;3.13;2.75;;;;;;;-3.32;100.00;101830.94;6039228;23;20066;-73
2023/03/02 04:45:07;;;;;;;2.25;2.13;;;;;;;-2.98;100.00;101888.19;6108711;23;20059;-70
2023/03/02 04:47:33;;;;;;;3.60;3.40;;;;;;;-3.86;100.00;101739.88;6051714;23;20316;-72
2023/03/02 04:50:00;;;;;;;2.42;2.33;;;;;;;-2.90;100.00;101896.94;6109911;23;20025;-73
2023/03/02 04:52:26;;;;;;;2.47;2.38;;;;;;;-3.31;100.00;101828.38;6084116;23;20623;-70
2023/03/02 04:54:53;;;;;;;3.08;2.97;;;;;;;-4.05;100.00;101703.56;6108812;23;20033;-72
2023/03/02 04:57:19;;;;;;;4.05;3.03;;;;;;;-3.35;100.00;101830.84;6052973;23;20504;-74
2023/03/02 04:59:46;;;;;;;2.40;2.30;;;;;;;-3.22;100.00;101855.97;6030341;23;20585;-72
2023/03/02 05:02:12;;;;;;;2.60;2.47;;;;;;;-3.02;100.00;101887.25;5993442;23;20200;-72
2023/03/02 05:04:39;;;;;;;2.78;2.67;;;;;;;-3.05;100.00;101874.31;6052919;23;20096;-73
2023/03/02 05:07:07;;;;;;;2.22;2.13;;;;;;;-3.04;100.00;101870.94;6001177;23;20033;-73
2023/03/02 05:09:33;;;;;;;3.42;3.22;;;;;;;-3.04;100.00;101869.22;6029490;23;20018;-74
2023/03/02 05:12:00;;;;;;;2.40;2.30;;;;;;;-2.92;100.00;101889.19;6021649;23;20023;-70
2023/03/02 05:14:29;;;;;;;5.22;3.10;;;;;;;-2.92;100.00;101888.34;6025099;23;20059;-71
2023/03/02 05:16:56;;;;;;;2.30;2.20;;;;;;;-2.94;100.00;101875.44;6024794;23;20034;-72
2023/03/02 05:19:22;;;;;;;2.95;2.85;;;;;;;-2.99;100.00;101866.75;6049837;23;20169;-73
2023/03/02 05:21:49;;;;;;;2.75;2.65;;;;;;;-3.44;100.00;101818.69;6024283;23;20038;-72
2023/03/02 05:24:15;;;;;;;2.45;2.35;;;;;;;-3.31;100.00;101825.81;6050487;23;20386;-73
2023/03/02 05:26:42;;;;;;;3.95;3.05;;;;;;;-2.99;100.00;101874.47;6025592;23;20078;-73
2023/03/02 05:29:10;;;;;;;2.72;2.63;;;;;;;-2.92;100.00;101884.06;6051798;23;20384;-72
2023/03/02 05:31:40;;;;;;;2.90;2.80;;;;;;;-2.91;100.00;101880.63;6024211;23;20026;-70
2023/03/02 05:34:09;;;;;;;2.30;2.20;;;;;;;-3.14;100.00;101846.75;6028444;23;20365;-72
2023/03/02 05:36:36;;;;;;;2.70;2.60;;;;;;;-3.92;100.00;101712.38;6021527;23;20034;-72
2023/03/02 05:39:04;;;;;;;2.50;2.40;;;;;;;-2.86;100.00;101878.19;6058650;23;20086;-72
2023/03/02 05:41:31;;;;;;;2.40;2.30;;;;;;;-3.30;100.00;101804.47;6035448;23;20132;-73
2023/03/02 05:43:57;;;;;;;2.78;2.35;;;;;;;-2.85;100.00;101885.06;6059073;23;20046;-70
2023/03/02 05:46:24;;;;;;;2.92;2.83;;;;;;;-2.89;100.00;101878.97;6026316;23;20074;-72
2023/03/02 05:48:51;;;;;;;3.63;3.33;;;;;;;-3.26;100.00;101820.81;6051679;23;20396;-73
2023/03/02 05:51:18;;;;;;;3.88;3.38;;;;;;;-3.50;100.00;101775.78;6023733;23;20019;-72
2023/03/02 05:53:44;;;;;;;2.60;2.50;;;;;;;-2.95;100.00;101885.69;6052349;23;20045;-74
2023/03/02 05:56:11;;;;;;;2.78;2.65;;;;;;;-2.92;100.00;101871.22;6026657;23;20120;-73
2023/03/02 05:58:37;;;;;;;2.65;2.40;;;;;;;-2.92;100.00;101873.78;6006524;23;20042;-73
2023/03/02 06:01:09;;;;;;;2.55;2.35;;;;;;;-3.87;100.00;101723.63;6053767;23;20050;-70
2023/03/02 06:03:35;;;;;;;10.30;2.97;;;;;;;-3.08;100.00;101852.03;6020334;23;20052;-71
2023/03/02 06:06:02;;;;;;;2.47;2.38;;;;;;;-3.00;100.00;101880.44;6051551;23;20291;-71
2023/03/02 06:08:28;;;;;;;3.42;3.17;;;;;;;-2.82;100.00;101886.00;5997329;23;20179;-74
2023/03/02 06:10:55;;;;;;;3.85;3.58;;;;;;;-2.99;100.00;101861.63;6051563;23;20079;-72
2023/03/02 06:13:22;;;;;;;2.55;2.45;;;;;;;-3.11;100.00;101853.66;6022352;23;20050;-72
2023/03/02 06:15:48;;;;;;;2.55;2.45;;;;;;;-3.01;100.00;101892.44;6046032;23;20026;-73
2023/03/02 06:18:20;;;;;;;2.95;2.75;;;;;;;-3.09;100.00;101875.94;6022154;23;20030;-74
2023/03/02 06:20:49;;;;;;;2.95;2.40;;;;;;;-3.13;100.00;101869.00;6049556;23;20540;-73
2023/03/02 06:23:15;;;;;;;2.45;2.35;;;;;;;-3.67;100.00;101800.16;6027856;23;20520;-72
2023/03/02 06:25:47;;;;;;;2.78;2.63;;;;;;;-3.14;100.00;101874.13;6052713;23;20022;-70
2023/03/02 06:28:15;;;;;;;2.43;2.33;;;;;;;-3.28;100.00;101848.16;6022395;23;20047;-69
2023/03/02 06:30:41;;;;;;;3.88;3.60;;;;;;;-3.03;100.00;101895.78;6052369;23;21022;-71
2023/03/02 06:33:08;;;;;;;3.75;3.45;;;;;;;-3.24;100.00;101849.94;6022863;23;20034;-73
2023/03/02 06:35:34;;;;;;;2.72;2.63;;;;;;;-3.27;100.00;101835.34;6052027;23;20063;-69
2023/03/02 06:38:01;;;;;;;3.88;3.03;;;;;;;-3.33;100.00;101808.66;6021156;23;20380;-69
2023/03/02 06:40:27;;;;;;;2.72;2.53;;;;;;;-3.21;100.00;101820.09;6054491;23;20053;-72
2023/03/02 06:42:54;;;;;;;2.92;2.78;;;;;;;-3.03;100.00;101847.88;6021343;23;20256;-72
2023/03/02 06:45:20;;;;;;;5.72;3.40;;;;;;;-2.81;100.00;101866.31;6021416;23;20485;-70
2023/03/02 06:47:47;;;;;;;3.42;2.80;;;;;;;-2.68;100.00;101886.28;6017816;23;20517;-71
2023/03/02 06:50:13;;;;;;;2.45;2.35;;;;;;;-2.76;100.00;101875.00;6051108;23;20486;-70
2023/03/02 06:52:39;;;;;;;2.47;2.38;;;;;;;-2.66;100.00;101888.91;6019915;23;20022;-70
2023/03/02 06:55:06;;;;;;;3.15;2.95;;;;;;;-3.05;100.00;101822.97;6050774;23;20038;-71
2023/03/02 06:57:33;;;;;;;4.20;3.88;;;;;;;-2.58;100.00;101895.06;6025386;23;20171;-68
2023/03/02 07:00:05;;;;;;;3.38;3.17;;;;;;;-2.55;100.00;101895.13;6078222;23;20112;-71
2023/03/02 07:02:32;;;;;;;2.90;2.75;;;;;;;-2.77;100.00;101864.66;6060884;23;20010;-72
2023/03/02 07:04:58;;;;;;;2.53;2.42;;;;;;;-2.54;100.00;101881.44;6107115;23;20613;-68
2023/03/02 07:07:25;;;;;;;3.88;3.67;;;;;;;-2.51;100.00;101875.50;6078130;23;20503;-69
2023/03/02 07:09:51;;;;;;;2.50;2.40;;;;;;;-2.49;100.00;101858.41;6106917;23;20045;-72
2023/03/02 07:12:17;;;;;;;2.88;2.53;;;;;;;-2.03;100.00;101900.44;6034980;23;19994;-70
2023/03/02 07:14:44;;;;;;;3.00;2.90;;;;;;;-2.16;100.00;101855.63;6103653;23;20250;-72
2023/03/02 07:17:10;;;;;;;7.38;3.08;;;;;;;-1.72;100.00;101904.47;6080143;23;20486;-70
2023/03/02 07:19:37;;;;;;;3.50;3.22;;;;;;;-1.97;100.00;101837.94;6103620;23;20028;-69
2023/03/02 07:22:06;;;;;;;2.58;2.47;;;;;;;-1.96;100.00;101826.84;6053209;23;20097;-70
2023/03/02 07:24:32;;;;;;;2.88;2.67;;;;;;;-2.03;100.00;101788.13;6049035;23;20026;-68
2023/03/02 07:26:59;;;;;;;2.80;2.60;;;;;;;-1.38;98.92;101886.13;6106194;23;20647;-72
2023/03/02 07:29:25;;;;;;;2.78;2.67;;;;;;;-1.54;98.61;101836.97;6050410;23;20415;-70
2023/03/02 07:31:55;;;;;;;3.60;3.03;;;;;;;-1.07;95.94;101901.22;6076406;23;20029;-71
2023/03/02 07:34:23;;;;;;;3.17;2.97;;;;;;;-0.94;95.69;101889.41;6047981;23;20663;-70
2023/03/02 07:36:50;;;;;;;2.90;2.80;;;;;;;-1.82;95.01;101730.16;6075648;23;20082;-70
2023/03/02 07:39:17;;;;;;;4.93;3.15;;;;;;;-1.59;94.22;101752.81;6103243;23;20483;-70
2023/03/02 07:41:44;;;;;;;3.10;2.90;;;;;;;-1.09;93.73;101819.63;6076839;23;20043;-72
2023/03/02 07:44:10;;;;;;;3.20;3.00;;;;;;;-0.54;94.38;101894.22;6048975;23;20048;-70
2023/03/02 07:46:37;;;;;;;3.35;3.15;;;;;;;-0.42;93.89;101899.56;6079933;23;20682;-70
2023/03/02 07:49:04;;;;;;;3.40;3.10;;;;;;;-0.32;93.04;101896.25;6052977;23;20030;-70
2023/03/02 07:51:30;;;;;;;6.13;3.70;;;;;;;-0.52;93.33;101843.53;6106272;23;20100;-70
2023/03/02 07:53:57;;;;;;;2.92;2.83;;;;;;;-0.29;91.56;101860.16;6054521;23;20329;-70
2023/03/02 07:56:23;;;;;;;3.42;3.22;;;;;;;-0.10;90.00;101866.38;6105896;23;20212;-68
2023/03/02 07:58:50;;;;;;;3.47;3.22;;;;;;;0.23;87.98;101888.22;6051129;23;20609;-70
2023/03/02 08:01:16;;;;;;;3.53;3.30;;;;;;;-0.23;84.75;101780.25;6078095;23;20018;-69
2023/03/02 08:03:43;;;;;;;2.80;2.70;;;;;;;0.41;84.23;101847.94;6059477;23;20030;-72
2023/03/02 08:06:11;;;;;;;3.75;3.25;;;;;;;0.50;84.08;101851.47;6034652;23;20015;-70
2023/03/02 08:08:38;;;;;;;2.60;2.50;;;;;;;0.62;82.23;101858.41;6092716;23;20298;-70
2023/03/02 08:11:10;;;;;;;5.93;3.42;;;;;;;-0.49;80.76;101638.16;6031761;23;20221;-70
2023/03/02 08:13:38;;;;;;;2.65;2.55;;;;;;;0.88;80.97;101849.97;6057830;23;20050;-71
2023/03/02 08:16:06;;;;;;;3.47;3.28;;;;;;;0.93;80.08;101845.72;6054041;23;21100;-71
2023/03/02 08:18:34;;;;;;;3.03;2.92;;;;;;;1.04;79.39;101831.13;6087446;23;20092;-71
2023/03/02 08:21:01;;;;;;;2.83;2.72;;;;;;;0.73;78.08;101768.94;6050274;23;20042;-71
2023/03/02 08:23:27;;;;;;;3.60;3.30;;;;;;;1.25;78.18;101837.28;6081340;23;20038;-71
2023/03/02 08:25:55;;;;;;;3.20;3.00;;;;;;;1.33;77.41;101833.84;6056587;23;20374;-71
2023/03/02 08:28:22;;;;;;;4.18;3.90;;;;;;;1.11;75.65;101760.50;6029596;23;20046;-69
2023/03/02 08:30:59;;;;;;;5.03;4.13;;;;;;;1.50;74.11;101795.09;6083080;23;20030;-71
2023/03/02 08:33:27;;;;;;;2.95;2.83;;;;;;;1.58;73.22;101762.38;6056409;23;20091;-70
2023/03/02 08:35:56;;;;;;;3.63;3.15;;;;;;;1.36;72.21;101708.84;6056614;23;20038;-69
2023/03/02 08:38:23;;;;;;;5.70;5.05;;;;;;;1.71;71.51;101745.16;6028246;23;20489;-69
2023/03/02 08:40:51;;;;;;;4.30;4.07;;;;;;;1.51;70.96;101677.84;6004595;23;20399;-69
2023/03/02 08:43:22;;;;;;;3.97;3.67;;;;;;;1.86;70.33;101720.13;6055318;23;20026;-70
2023/03/02 08:45:53;;;;;;;3.30;3.10;;;;;;;1.96;69.74;101709.78;6025877;23;20042;-70
2023/03/02 08:48:20;;;;;;;3.28;3.08;;;;;;;2.17;69.34;101727.03;6052765;23;20465;-70
2023/03/02 08:51:02;;;;;;;7.43;4.65;;;;;;;2.28;68.71;101714.06;6028949;23;20030;-70
2023/03/02 08:53:31;;;;;;;3.60;3.40;;;;;;;2.35;68.36;101708.00;6059339;23;20276;-70
2023/03/02 08:55:57;;;;;;;4.47;4.07;;;;;;;2.13;66.93;101639.00;6086861;23;20033;-68
2023/03/02 08:58:24;;;;;;;4.10;3.83;;;;;;;2.55;66.75;101686.38;6042948;23;20037;-68
2023/03/02 09:00:53;;;;;;;4.45;4.18;;;;;;;2.53;67.20;101654.44;6083320;23;20021;-71
2023/03/02 09:03:20;;;;;;;4.32;3.92;;;;;;;2.49;65.95;101619.91;6079097;23;20288;-69
2023/03/02 09:05:46;;;;;;;5.22;4.75;;;;;;;2.76;66.61;101660.38;6050550;23;20174;-71
2023/03/02 09:08:13;;;;;;;4.45;3.85;;;;;;;2.95;65.99;101661.16;6084691;23;20013;-72
2023/03/02 09:10:39;;;;;;;4.43;4.15;;;;;;;2.98;64.27;101629.16;6081266;23;20050;-70
2023/03/02 09:13:06;;;;;;;4.15;3.85;;;;;;;2.77;63.79;101553.25;6108405;23;20432;-70
2023/03/02 09:15:34;;;;;;;3.55;3.33;;;;;;;2.96;62.78;101542.75;6081242;23;20025;-70
2023/03/02 09:18:00;;;;;;;7.63;5.45;;;;;;;3.07;62.90;101547.88;6106653;23;20029;-69
2023/03/02 09:20:27;;;;;;;4.50;4.10;;;;;;;3.34;62.01;101580.50;6049901;23;20114;-70
2023/03/02 09:22:53;;;;;;;5.68;4.63;;;;;;;3.22;61.39;101521.78;6110796;23;20531;-71
2023/03/02 09:25:20;;;;;;;3.72;3.53;;;;;;;3.38;61.44;101517.31;6058699;23;20037;-74
2023/03/02 09:27:46;;;;;;;5.00;4.60;;;;;;;3.16;60.61;101460.44;6103597;23;20014;-70
2023/03/02 09:30:13;;;;;;;4.40;4.00;;;;;;;3.02;60.28;101417.38;6066672;23;20047;-72
2023/03/02 09:32:42;;;;;;;5.97;4.95;;;;;;;3.61;60.13;101509.34;6051537;23;20379;-69
2023/03/02 09:35:09;;;;;;;4.22;3.97;;;;;;;3.80;60.28;101529.00;6083960;23;20029;-74
2023/03/02 09:37:37;;;;;;;5.07;4.70;;;;;;;3.88;60.02;101489.13;6082001;23;20032;-73
2023/03/02 09:40:15;;;;;;;3.83;3.63;;;;;;;3.83;59.09;101459.75;6075583;23;20134;-69
2023/03/02 09:43:11;;;;;;;5.82;5.28;;;;;;;3.70;58.37;101400.19;6051553;23;20025;-71
2023/03/02 09:45:56;;;;;;;4.93;4.50;;;;;;;3.20;57.90;101290.09;6103017;23;20040;-74
2023/03/02 09:48:46;;;;;;;6.22;4.80;;;;;;;4.20;58.02;101434.16;6081817;23;20018;-71
2023/03/02 09:51:32;;;;;;;5.65;4.85;;;;;;;4.60;57.71;101455.22;6084560;23;20514;-70
2023/03/02 09:54:11;;;;;;;3.92;3.63;;;;;;;4.49;56.06;101399.09;6030172;23;20702;-71
2023/03/02 09:56:45;;;;;;;4.88;4.47;;;;;;;4.15;56.96;101345.94;6106503;23;20021;-72
2023/03/02 09:59:31;;;;;;;3.80;3.60;;;;;;;4.49;56.08;101358.38;6080386;23;20026;-69
2023/03/02 10:02:16;;;;;;;4.93;4.53;;;;;;;4.82;55.43;101409.84;6105380;23;20095;-72
2023/03/02 10:04:49;;;;;;;8.73;4.68;;;;;;;4.75;55.52;101338.88;6085765;23;20026;-70
2023/03/02 10:07:27;;;;;;;8.20;5.18;;;;;;;4.20;55.75;101229.78;6052376;23;20078;-69
2023/03/02 10:10:01;;;;;;;4.85;4.50;;;;;;;5.07;54.80;101340.91;6054992;23;20061;-70
2023/03/02 10:12:49;;;;;;;5.03;4.55;;;;;;;5.31;54.14;101349.09;6106896;23;20608;-68
2023/03/02 10:15:32;;;;;;;6.75;5.40;;;;;;;5.10;54.14;101293.16;6079296;23;20041;-72
2023/03/02 10:18:22;;;;;;;6.22;5.82;;;;;;;4.95;53.18;101229.25;6082664;23;20350;-73
2023/03/02 10:21:02;;;;;;;5.70;5.20;;;;;;;5.60;53.26;101292.06;6047781;23;20100;-72
2023/03/02 10:23:31;;;;;;;7.00;5.57;;;;;;;5.85;53.35;101334.94;6080421;23;20044;-72
2023/03/02 10:26:10;;;;;;;5.30;4.80;;;;;;;6.01;52.76;101312.03;6105736;23;20033;-69
2023/03/02 10:28:51;;;;;;;6.25;5.63;;;;;;;5.55;52.55;101215.84;6053003;23;20568;-70
2023/03/02 10:31:28;;;;;;;5.68;5.07;;;;;;;5.99;52.76;101312.97;5950126;23;20017;-69
2023/03/02 10:33:55;;;;;;;6.05;4.22;;;;;;;5.75;52.30;101243.13;6080317;23;20056;-73
2023/03/02 10:36:25;;;;;;;6.63;6.13;;;;;;;5.92;52.62;101243.59;6105858;23;20026;-69
2023/03/02 10:38:53;;;;;;;5.13;4.75;;;;;;;5.81;51.76;101227.38;6079845;23;20030;-70
2023/03/02 10:41:30;;;;;;;5.00;4.70;;;;;;;6.22;50.72;101235.97;6051551;23;20139;-69
2023/03/02 10:44:18;;;;;;;5.20;4.80;;;;;;;6.30;50.83;101207.94;6078781;23;20085;-71
2023/03/02 10:46:45;;;;;;;7.65;5.90;;;;;;;6.16;50.37;101157.94;6106112;23;20116;-72
2023/03/02 10:49:26;;;;;;;6.80;6.20;;;;;;;5.87;51.42;101138.66;6083222;23;20412;-70
2023/03/02 10:52:01;;;;;;;7.38;5.13;;;;;;;6.33;52.37;101259.97;6106461;23;20708;-68
2023/03/02 10:54:30;;;;;;;4.82;4.57;;;;;;;6.52;51.74;101269.97;6080804;23;20104;-67
2023/03/02 10:57:02;;;;;;;5.18;4.63;;;;;;;6.41;50.64;101181.56;6051729;23;20022;-69
2023/03/02 10:59:46;;;;;;;5.75;5.28;;;;;;;6.72;50.35;101207.69;6107983;23;20313;-72
2023/03/02 11:02:15;;;;;;;6.20;5.57;;;;;;;6.62;50.26;101187.97;6052862;23;20473;-72
2023/03/02 11:04:42;;;;;;;4.75;4.45;;;;;;;6.27;50.46;101116.78;6052392;23;20042;-71
2023/03/02 11:07:16;;;;;;;10.20;5.55;;;;;;;6.96;50.05;101213.94;6076684;23;20032;-70
2023/03/02 11:10:03;;;;;;;6.90;6.30;;;;;;;6.83;49.93;101139.53;6108368;23;20044;-69
2023/03/02 11:12:31;;;;;;;6.75;6.05;;;;;;;7.17;49.37;101162.00;6056245;23;20022;-72
2023/03/02 11:15:34;;;;;;;6.05;5.55;;;;;;;7.21;50.40;101202.78;6107354;23;20181;-73
2023/03/02 11:18:14;;;;;;;5.47;5.07;;;;;;;7.32;49.19;101172.00;6079114;23;20037;-71
2023/03/02 11:20:44;;;;;;;9.70;5.28;;;;;;;7.27;49.67;101171.25;6105905;23;20076;-70
2023/03/02 11:23:50;;;;;;;7.70;6.10;;;;;;;7.50;48.77;101183.63;6036486;23;20512;-71
2023/03/02 11:26:26;;;;;;;7.53;6.22;;;;;;;6.97;49.00;101053.03;6103442;23;20022;-73
2023/03/02 11:29:11;;;;;;;5.43;5.03;;;;;;;7.53;48.74;101167.84;6079288;23;20041;-69
2023/03/02 11:31:52;;;;;;;6.30;5.30;;;;;;;7.71;48.12;101155.09;6108305;23;20503;-73
2023/03/02 11:34:37;;;;;;;5.43;4.95;;;;;;;7.85;49.06;101137.19;6086484;23;20046;-71
2023/03/02 11:37:20;;;;;;;5.40;4.88;;;;;;;7.66;47.88;101094.28;6024411;23;20013;-67